»·PEaware :: N717TS KBFI-KPDX

N717TS :: KBFI-KPDX

FLIGHT INFORMATION

Flight Status: Arrived
Operator: Privately registered:
United States
More flights under this callsign
Pilot: Ty S. (2873)
Aircraft: ECLIPSE 500
(EA50)
More flights by this aircraft type
Origin: KBFI Boeing Field/King Co Intl
United States
Destination: KPDX Portland Intl
United States
More flights between these airports :: More routes between these airports
Route: +BUWZO HELNS6
File this flight plan on PilotEdge
Remarks:
Altitude:
(Current/Filed)
12,000ft
Speed:
(Current/Filed)
300kts
Departed: 13-Jan-20 05:45 PM
Arrived: 13-Jan-20 06:26 PM
Distance/Time
Traveled:
117nm/0:41
Distance/Time
To Go:
Arrived

Flight Plot

Page will automatically refresh every two minutes.

Flight plan parsing failed; only flown route is shown


Map Options




Map Legend


Flown Route
Filed Route
Departure Airport
Arrival Airport
Navaid (VOR, NDB)
Fix

Horizontal Profiles

Position Reports

Time Latitude Longitude Heading Altitude Ground
Speed
13-Jan-20 17:12 47.520141 -122.296561 0 21ft 0kts
13-Jan-20 17:13 47.520141 -122.296561 0 21ft 0kts
13-Jan-20 17:14 47.520141 -122.296561 0 21ft 0kts
13-Jan-20 17:15 47.520141 -122.296561 0 21ft 0kts
13-Jan-20 17:16 47.520141 -122.296561 0 21ft 0kts
13-Jan-20 17:17 47.520141 -122.296561 0 21ft 0kts
13-Jan-20 17:18 47.520141 -122.296561 0 21ft 0kts
13-Jan-20 17:19 47.520141 -122.296561 0 21ft 0kts
13-Jan-20 17:20 47.520141 -122.296561 0 21ft 0kts
13-Jan-20 17:21 47.520141 -122.296561 0 21ft 0kts
13-Jan-20 17:21 47.520141 -122.296561 0 21ft 0kts
13-Jan-20 17:23 47.520141 -122.296561 0 21ft 0kts
13-Jan-20 17:24 47.520141 -122.296561 0 21ft 0kts
13-Jan-20 17:24 47.520141 -122.296561 0 21ft 0kts
13-Jan-20 17:29 47.520141 -122.296561 0 21ft 0kts
13-Jan-20 17:30 47.520141 -122.296561 359 21ft 0kts
13-Jan-20 17:32 47.520141 -122.296561 0 21ft 0kts
13-Jan-20 17:32 47.520141 -122.296561 0 21ft 0kts
13-Jan-20 17:33 47.520141 -122.296561 0 21ft 0kts
13-Jan-20 17:34 47.520141 -122.296561 0 21ft 0kts
13-Jan-20 17:35 47.520141 -122.296561 0 21ft 0kts
13-Jan-20 17:36 47.520141 -122.296561 0 21ft 0kts
13-Jan-20 17:37 47.520141 -122.296561 0 21ft 0kts
13-Jan-20 17:38 47.520141 -122.296561 0 21ft 0kts
13-Jan-20 17:39 47.520959 -122.296482 332 21ft 11kts
13-Jan-20 17:40 47.525561 -122.300254 329 21ft 19kts
13-Jan-20 17:41 47.530265 -122.304234 330 21ft 20kts
13-Jan-20 17:42 47.536400 -122.309435 329 21ft 25kts
13-Jan-20 17:43 47.539779 -122.312235 37 21ft 0kts
13-Jan-20 17:44 47.536677 -122.308140 150 21ft 80kts
13-Jan-20 17:45 47.503487 -122.281110 150 1501ft 161kts
13-Jan-20 17:46 47.456448 -122.242196 157 3460ft 214kts
13-Jan-20 17:47 47.397147 -122.247192 188 5978ft 220kts
13-Jan-20 17:48 47.336096 -122.255886 189 8387ft 225kts
13-Jan-20 17:49 47.273536 -122.264734 189 10598ft 229kts
13-Jan-20 17:50 47.201813 -122.274937 188 10976ft 293kts
13-Jan-20 17:51 47.117283 -122.286687 188 10972ft 297kts
13-Jan-20 17:52 47.035737 -122.298041 188 10971ft 294kts
13-Jan-20 17:53 46.954487 -122.309237 188 10971ft 294kts
13-Jan-20 17:54 46.874849 -122.309279 185 10970ft 296kts
13-Jan-20 17:55 46.791915 -122.309566 185 10971ft 298kts
13-Jan-20 17:56 46.708366 -122.309626 184 10971ft 303kts
13-Jan-20 17:57 46.623737 -122.309629 184 10971ft 304kts
13-Jan-20 17:58 46.539766 -122.309624 185 10971ft 301kts
13-Jan-20 17:59 46.456152 -122.309623 185 10980ft 298kts
13-Jan-20 18:00 46.373385 -122.309627 185 10988ft 297kts
13-Jan-20 18:01 46.290866 -122.309627 185 10992ft 296kts
13-Jan-20 18:02 46.212968 -122.334082 206 10996ft 287kts
13-Jan-20 18:03 46.140581 -122.375407 215 9627ft 275kts
13-Jan-20 18:04 46.083012 -122.446884 225 8114ft 271kts
13-Jan-20 18:05 46.026653 -122.519019 225 6602ft 269kts
13-Jan-20 18:06 45.971486 -122.590903 225 5109ft 265kts
13-Jan-20 18:07 45.917823 -122.661374 224 4992ft 266kts
13-Jan-20 18:08 45.864948 -122.730915 224 4990ft 266kts
13-Jan-20 18:09 45.811219 -122.802369 224 3753ft 263kts
13-Jan-20 18:10 45.757304 -122.870963 201 2986ft 259kts
13-Jan-20 18:11 45.693668 -122.828907 145 2988ft 265kts
13-Jan-20 18:12 45.653189 -122.746132 117 2357ft 227kts
13-Jan-20 18:13 45.623410 -122.669129 114 2818ft 245kts
13-Jan-20 18:14 45.591471 -122.576634 115 3984ft 258kts
13-Jan-20 18:15 45.609192 -122.498740 14 3993ft 250kts
13-Jan-20 18:16 45.656281 -122.553123 294 3991ft 253kts
13-Jan-20 18:17 45.683855 -122.642295 294 3069ft 231kts
13-Jan-20 18:18 45.709633 -122.724695 294 2989ft 224kts
13-Jan-20 18:19 45.716799 -122.807252 218 2986ft 219kts
13-Jan-20 18:20 45.667415 -122.779528 123 2868ft 214kts
13-Jan-20 18:21 45.640908 -122.713883 118 1895ft 156kts
13-Jan-20 18:22 45.620530 -122.661894 119 1087ft 148kts
13-Jan-20 18:23 45.603440 -122.618385 119 418ft 105kts
13-Jan-20 18:24 45.590091 -122.583529 118 32ft 63kts
13-Jan-20 18:25 45.586415 -122.576342 207 32ft 12kts
13-Jan-20 18:26 45.585210 -122.578032 125 32ft 0kts
13-Jan-20 18:27 45.585210 -122.578032 125 32ft 0kts
13-Jan-20 18:28 45.585210 -122.578032 125 32ft 0kts
13-Jan-20 18:29 45.585210 -122.578032 125 32ft 0kts
13-Jan-20 18:30 45.585210 -122.578032 125 32ft 0kts
13-Jan-20 18:31 45.585210 -122.578032 125 32ft 0kts
13-Jan-20 18:32 45.585210 -122.578032 125 32ft 0kts
13-Jan-20 18:33 45.585210 -122.578032 125 32ft 0kts

Navigation Log

Ident Type
Flight plan parsing failed, navigation log unavailable